createdAt,value
2022-11-02T00:00:10.339Z,1303.61
2022-11-02T00:01:10.371Z,1303.61
2022-11-02T00:02:10.374Z,1303.61
2022-11-02T00:03:10.391Z,1303.61
2022-11-02T00:04:10.297Z,1303.61
2022-11-02T00:05:10.285Z,1303.61
2022-11-02T00:06:10.257Z,1303.61
2022-11-02T00:07:10.259Z,1303.61
2022-11-02T00:08:10.250Z,1303.61
2022-11-02T00:09:10.252Z,1303.61
2022-11-02T00:10:10.261Z,1303.61
2022-11-02T00:11:10.203Z,1303.61
2022-11-02T00:12:10.191Z,1303.61
2022-11-02T00:13:10.173Z,1303.61
2022-11-02T00:14:10.207Z,1303.61
2022-11-02T00:15:10.172Z,1303.61
2022-11-02T00:16:10.145Z,1303.61
2022-11-02T00:17:10.145Z,1303.61
2022-11-02T00:18:10.140Z,1303.61
2022-11-02T00:19:10.130Z,1303.61
2022-11-02T00:20:10.102Z,1303.61
2022-11-02T00:21:10.108Z,1303.61
2022-11-02T00:22:10.094Z,1303.61
2022-11-02T00:23:10.076Z,1303.61
2022-11-02T00:24:10.059Z,1303.61
2022-11-02T00:25:10.062Z,1303.61
2022-11-02T00:26:10.082Z,1303.61
2022-11-02T00:27:10.028Z,1303.61
2022-11-02T00:28:10.021Z,1303.61
2022-11-02T00:29:10.025Z,1303.61
2022-11-02T00:30:10.013Z,1303.61
2022-11-02T00:31:09.977Z,1303.61
2022-11-02T00:32:09.973Z,1303.61
2022-11-02T00:33:09.963Z,1303.61
2022-11-02T00:34:09.951Z,1303.61
2022-11-02T00:35:09.944Z,1303.61
2022-11-02T00:36:09.946Z,1303.61
2022-11-02T00:37:09.931Z,1303.61
2022-11-02T00:38:09.908Z,1303.61
2022-11-02T00:39:09.892Z,1303.61
2022-11-02T00:40:09.920Z,1303.61
2022-11-02T00:41:09.869Z,1303.61
2022-11-02T00:42:09.864Z,1303.61
2022-11-02T00:43:09.880Z,1303.61
2022-11-02T00:44:09.872Z,1303.61
2022-11-02T00:45:17.335Z,1303.61
2022-11-02T00:46:09.832Z,1303.61
2022-11-02T00:47:09.822Z,1303.61
2022-11-02T00:48:09.798Z,1303.61
2022-11-02T00:49:09.784Z,1303.61
2022-11-02T00:50:09.779Z,1303.61
2022-11-02T00:51:09.781Z,1303.61
2022-11-02T00:52:09.754Z,1303.61
2022-11-02T00:53:09.762Z,1303.61
2022-11-02T00:54:09.734Z,1303.61
2022-11-02T00:55:09.721Z,1303.61
2022-11-02T00:56:09.731Z,1303.61
2022-11-02T00:57:09.740Z,1303.61
2022-11-02T00:58:09.727Z,1303.61
2022-11-02T00:59:09.677Z,1303.61
2022-11-02T01:00:09.676Z,1303.61
2022-11-02T01:01:09.845Z,1303.61
2022-11-02T01:02:09.928Z,1303.61
2022-11-02T01:03:09.665Z,1303.61
2022-11-02T01:04:09.627Z,1303.61
2022-11-02T01:05:09.625Z,1303.61
2022-11-02T01:06:09.626Z,1303.61
2022-11-02T01:07:09.603Z,1303.61
2022-11-02T01:08:09.584Z,1303.61
2022-11-02T01:09:09.618Z,1303.61
2022-11-02T01:10:09.580Z,1303.61
2022-11-02T01:11:09.561Z,1303.61
2022-11-02T01:12:09.558Z,1303.61
2022-11-02T01:13:09.530Z,1303.61
2022-11-02T01:14:09.519Z,1303.61
2022-11-02T01:15:09.519Z,1303.61
2022-11-02T01:16:09.521Z,1303.61
2022-11-02T01:17:09.497Z,1303.61
2022-11-02T01:18:09.481Z,1303.61
2022-11-02T01:19:09.476Z,1303.61
2022-11-02T01:20:09.469Z,1303.61
2022-11-02T01:21:09.494Z,1303.61
2022-11-02T01:22:09.432Z,1303.61
2022-11-02T01:23:09.429Z,1303.61
2022-11-02T01:24:09.427Z,1303.61
2022-11-02T01:25:09.413Z,1303.61
2022-11-02T01:26:09.402Z,1303.61
2022-11-02T01:27:09.371Z,1303.61
2022-11-02T01:28:09.364Z,1303.61
2022-11-02T01:29:09.362Z,1303.61
2022-11-02T01:30:09.361Z,1303.61
2022-11-02T01:31:09.345Z,1303.61
2022-11-02T01:32:09.324Z,1303.61
2022-11-02T01:33:09.321Z,1303.61
2022-11-02T01:34:09.314Z,1303.61
2022-11-02T01:35:09.287Z,1303.61
2022-11-02T01:36:09.382Z,1303.61
2022-11-02T01:37:09.275Z,1303.61
2022-11-02T01:38:09.274Z,1303.61
2022-11-02T01:39:09.295Z,1303.61
2022-11-02T01:40:09.237Z,1303.61
2022-11-02T01:41:09.252Z,1303.61
2022-11-02T01:42:09.234Z,1303.61
2022-11-02T01:43:09.198Z,1303.61
2022-11-02T01:44:09.236Z,1303.61
2022-11-02T01:45:09.196Z,1303.61
2022-11-02T01:46:09.191Z,1303.61
2022-11-02T01:47:09.171Z,1303.61
2022-11-02T01:48:09.159Z,1303.61
2022-11-02T01:49:09.160Z,1303.61
2022-11-02T01:50:09.129Z,1303.61
2022-11-02T01:51:09.124Z,1303.61
2022-11-02T01:52:09.123Z,1303.61
2022-11-02T01:53:09.110Z,1303.61
2022-11-02T01:54:09.083Z,1303.61
2022-11-02T01:55:09.098Z,1303.61
2022-11-02T01:56:09.100Z,1303.61
2022-11-02T01:57:09.113Z,1303.61
2022-11-02T01:58:09.046Z,1303.61
2022-11-02T01:59:09.036Z,1303.61
2022-11-02T02:00:09.038Z,1303.61
2022-11-02T02:01:09.074Z,1303.61
2022-11-02T02:02:09.167Z,1303.61
2022-11-02T02:03:08.991Z,1303.61
2022-11-02T02:04:08.998Z,1303.61
2022-11-02T02:05:08.992Z,1303.61
2022-11-02T02:06:08.964Z,1303.61
2022-11-02T02:07:08.953Z,1303.61
2022-11-02T02:08:08.933Z,1303.61
2022-11-02T02:09:08.931Z,1303.61
2022-11-02T02:10:08.932Z,1303.61
2022-11-02T02:11:08.904Z,1303.61
2022-11-02T02:12:08.889Z,1303.61
2022-11-02T02:13:08.897Z,1303.61
2022-11-02T02:14:08.878Z,1303.61
2022-11-02T02:15:08.875Z,1303.61
2022-11-02T02:16:08.846Z,1303.61
2022-11-02T02:17:08.845Z,1303.61
2022-11-02T02:18:08.841Z,1303.61
2022-11-02T02:19:08.808Z,1303.61
2022-11-02T02:20:08.841Z,1303.61
2022-11-02T02:21:08.812Z,1303.61
2022-11-02T02:22:08.783Z,1303.61
2022-11-02T02:23:08.764Z,1303.61
2022-11-02T02:24:08.763Z,1303.61
2022-11-02T02:25:08.756Z,1303.61
2022-11-02T02:26:08.771Z,1303.61
2022-11-02T02:27:08.739Z,1303.61
2022-11-02T02:28:08.726Z,1303.61
2022-11-02T02:29:08.719Z,1303.61
2022-11-02T02:30:08.694Z,1303.61
2022-11-02T02:31:08.693Z,1303.61
2022-11-02T02:32:08.690Z,1303.61
2022-11-02T02:33:08.657Z,1303.61
2022-11-02T02:34:08.649Z,1303.61
2022-11-02T02:35:08.660Z,1303.61
2022-11-02T02:36:08.648Z,1303.61
2022-11-02T02:37:08.614Z,1303.61
2022-11-02T02:38:08.612Z,1303.61
2022-11-02T02:39:08.610Z,1303.61
2022-11-02T02:40:08.595Z,1303.61
2022-11-02T02:41:08.594Z,1303.61
2022-11-02T02:42:08.578Z,1303.61
2022-11-02T02:43:08.547Z,1303.61
2022-11-02T02:44:08.570Z,1303.61
2022-11-02T02:45:08.699Z,1303.61
2022-11-02T02:46:16.060Z,1303.61
2022-11-02T02:47:08.524Z,1303.61
2022-11-02T02:48:08.607Z,1303.61
2022-11-02T02:49:08.484Z,1303.61
2022-11-02T02:50:08.479Z,1303.61
2022-11-02T02:51:08.476Z,1303.61
2022-11-02T02:52:08.468Z,1303.61
2022-11-02T02:53:08.449Z,1303.61
2022-11-02T02:54:08.433Z,1303.61
2022-11-02T02:55:08.433Z,1303.61
2022-11-02T02:56:08.411Z,1303.61
2022-11-02T02:57:08.425Z,1303.61
2022-11-02T02:58:08.395Z,1303.61
2022-11-02T02:59:08.396Z,1303.61
2022-11-02T03:00:08.369Z,1303.61
2022-11-02T03:01:08.386Z,1303.61
2022-11-02T03:02:08.509Z,1303.61
2022-11-02T03:03:08.354Z,1303.61
2022-11-02T03:04:08.324Z,1303.61
2022-11-02T03:05:08.323Z,1303.61
2022-11-02T03:06:08.312Z,1303.61
2022-11-02T03:07:08.287Z,1303.61
2022-11-02T03:08:08.311Z,1303.61
2022-11-02T03:09:08.289Z,1303.61
2022-11-02T03:10:08.274Z,1303.61
2022-11-02T03:11:08.243Z,1303.61
2022-11-02T03:12:08.240Z,1303.61
2022-11-02T03:13:08.241Z,1303.61
2022-11-02T03:14:08.235Z,1303.61
2022-11-02T03:15:08.201Z,1303.61
2022-11-02T03:16:08.203Z,1303.61
2022-11-02T03:17:08.202Z,1303.61
2022-11-02T03:18:08.173Z,1303.61
2022-11-02T03:19:08.196Z,1303.61
2022-11-02T03:20:08.162Z,1303.61
2022-11-02T03:21:08.136Z,1303.61
2022-11-02T03:22:08.127Z,1303.61
2022-11-02T03:23:08.125Z,1303.61
2022-11-02T03:24:08.203Z,1303.61
2022-11-02T03:25:08.101Z,1303.61
2022-11-02T03:26:08.082Z,1303.61
2022-11-02T03:27:08.142Z,1303.61
2022-11-02T03:28:08.079Z,1303.61
2022-11-02T03:29:08.083Z,1303.61
2022-11-02T03:30:08.084Z,1303.61
2022-11-02T03:31:08.065Z,1303.61
2022-11-02T03:32:08.023Z,1303.61
2022-11-02T03:33:08.062Z,1303.61
2022-11-02T03:34:08.000Z,1303.61
2022-11-02T03:35:08.002Z,1303.61
2022-11-02T03:36:08.001Z,1303.61
2022-11-02T03:38:08.096Z,1303.61
2022-11-02T03:39:07.940Z,1303.61
2022-11-02T03:40:07.932Z,1303.61
2022-11-02T03:41:07.931Z,1303.61
2022-11-02T03:42:07.918Z,1303.61
2022-11-02T03:43:07.895Z,1303.61
2022-11-02T03:44:07.886Z,1303.61
2022-11-02T03:45:07.887Z,1303.61
2022-11-02T03:46:07.883Z,1303.61
2022-11-02T03:47:07.858Z,1303.61
2022-11-02T03:48:08.136Z,1303.61
2022-11-02T03:49:08.774Z,1303.61
2022-11-02T03:50:07.849Z,1303.61
2022-11-02T03:51:07.812Z,1303.61
2022-11-02T03:52:07.806Z,1303.61
2022-11-02T03:53:07.804Z,1303.61
2022-11-02T03:54:07.777Z,1303.61
2022-11-02T03:55:07.804Z,1303.61
2022-11-02T03:56:07.765Z,1303.61
2022-11-02T03:57:07.773Z,1303.61
2022-11-02T03:58:07.892Z,1303.61
2022-11-02T03:59:07.739Z,1303.61
2022-11-02T04:01:27.313Z,616.39
2022-11-02T04:02:27.216Z,615.38
2022-11-02T04:03:27.116Z,615.30
2022-11-02T04:04:27.107Z,615.34
2022-11-02T04:05:27.115Z,615.37
2022-11-02T04:06:27.079Z,615.42
2022-11-02T04:07:27.086Z,615.38
2022-11-02T04:08:27.077Z,615.34
2022-11-02T04:09:27.047Z,615.38
2022-11-02T04:10:27.075Z,615.30
2022-11-02T04:11:27.016Z,615.17
2022-11-02T04:12:27.013Z,615.11
2022-11-02T04:13:27.006Z,615.13
2022-11-02T04:14:26.995Z,615.21
2022-11-02T04:15:26.978Z,615.25
2022-11-02T04:16:28.206Z,615.18
2022-11-02T04:17:26.997Z,615.15
2022-11-02T04:18:26.971Z,615.16
2022-11-02T04:19:26.928Z,615.22
2022-11-02T04:20:26.941Z,615.30
2022-11-02T04:21:26.926Z,615.29
2022-11-02T04:22:26.919Z,615.27
2022-11-02T04:23:26.898Z,615.33
2022-11-02T04:24:26.874Z,615.29
2022-11-02T04:25:26.861Z,615.27
2022-11-02T04:26:26.864Z,615.14
2022-11-02T04:27:26.845Z,614.94
2022-11-02T04:28:26.879Z,614.84
2022-11-02T04:29:26.817Z,614.75
2022-11-02T04:30:26.805Z,614.60
2022-11-02T04:31:26.810Z,614.51
2022-11-02T04:32:26.779Z,614.50
2022-11-02T04:33:26.774Z,614.39
2022-11-02T04:34:26.761Z,614.31
2022-11-02T04:35:26.770Z,614.30
2022-11-02T04:36:26.769Z,614.40
2022-11-02T04:37:26.802Z,614.48
2022-11-02T04:38:26.727Z,614.60
2022-11-02T04:39:26.722Z,614.78
2022-11-02T04:40:26.693Z,614.82
2022-11-02T04:41:26.711Z,614.88
2022-11-02T04:42:26.685Z,614.82
2022-11-02T04:43:26.697Z,614.75
2022-11-02T04:44:28.849Z,614.79
2022-11-02T04:45:26.649Z,614.90
2022-11-02T04:46:26.645Z,615.05
2022-11-02T04:47:26.616Z,615.13
2022-11-02T04:48:26.622Z,615.17
2022-11-02T04:49:26.615Z,615.27
2022-11-02T04:50:26.581Z,615.25
2022-11-02T04:51:26.576Z,615.30
2022-11-02T04:52:26.601Z,615.35
2022-11-02T04:53:26.573Z,615.39
2022-11-02T04:54:26.553Z,615.46
2022-11-02T04:55:26.594Z,1303.61
2022-11-02T04:56:26.534Z,1303.61
2022-11-02T04:57:26.505Z,1303.61
2022-11-02T04:58:26.501Z,1303.61
2022-11-02T04:59:26.503Z,1303.61
2022-11-02T05:00:26.503Z,1303.61
2022-11-02T05:01:26.556Z,1303.61
2022-11-02T05:02:26.655Z,1303.61
2022-11-02T05:03:26.453Z,1303.61
2022-11-02T05:04:26.421Z,1303.61
2022-11-02T05:05:26.430Z,1303.61
2022-11-02T05:06:26.415Z,1303.61
2022-11-02T05:07:26.408Z,1303.61
2022-11-02T05:08:26.400Z,1303.61
2022-11-02T05:09:26.377Z,1303.61
2022-11-02T05:10:26.386Z,1303.61
2022-11-02T05:11:26.351Z,1303.61
2022-11-02T05:12:29.197Z,1303.61
2022-11-02T05:13:26.371Z,1303.61
2022-11-02T05:14:26.335Z,1303.61
2022-11-02T05:15:26.307Z,1303.61
2022-11-02T05:16:26.305Z,1303.61
2022-11-02T05:17:26.298Z,1303.61
2022-11-02T05:18:26.271Z,1303.61
2022-11-02T05:19:26.275Z,1303.61
2022-11-02T05:20:26.262Z,1303.61
2022-11-02T05:21:26.241Z,1303.61
2022-11-02T05:22:26.226Z,1303.61
2022-11-02T05:23:26.232Z,1303.61
2022-11-02T05:24:26.232Z,1303.61
2022-11-02T05:25:26.193Z,1303.61
2022-11-02T05:26:26.178Z,1303.61
2022-11-02T05:27:26.187Z,1303.61
2022-11-02T05:28:26.189Z,1303.61
2022-11-02T05:29:26.155Z,1303.61
2022-11-02T05:30:26.154Z,1303.61
2022-11-02T05:31:26.146Z,1303.61
2022-11-02T05:32:26.112Z,1303.61
2022-11-02T05:33:30.388Z,1303.61
2022-11-02T05:34:26.104Z,1303.61
2022-11-02T05:35:26.101Z,1303.61
2022-11-02T05:36:26.069Z,1303.61
2022-11-02T05:37:26.070Z,1303.61
2022-11-02T05:38:26.123Z,1303.61
2022-11-02T05:39:26.072Z,1303.61
2022-11-02T05:40:26.054Z,1303.61
2022-11-02T05:41:26.031Z,1303.61
2022-11-02T05:42:26.004Z,1303.61
2022-11-02T05:43:25.995Z,1303.61
2022-11-02T05:44:25.986Z,1303.61
2022-11-02T05:45:25.986Z,1303.61
2022-11-02T05:46:25.984Z,1303.61
2022-11-02T05:47:25.988Z,1303.61
2022-11-02T05:48:25.955Z,1303.61
2022-11-02T05:49:25.939Z,1303.61
2022-11-02T05:50:25.922Z,1303.61
2022-11-02T05:51:25.913Z,1303.61
2022-11-02T05:52:25.903Z,1303.61
2022-11-02T05:53:25.893Z,1303.61
2022-11-02T05:54:25.881Z,1303.61
2022-11-02T05:55:25.869Z,1303.61
2022-11-02T05:56:25.867Z,1303.61
2022-11-02T05:57:25.855Z,1303.61
2022-11-02T05:58:25.833Z,1303.61
2022-11-02T05:59:25.840Z,1303.61
2022-11-02T06:00:25.828Z,1303.61
2022-11-02T06:01:39.506Z,1303.61
2022-11-02T06:02:25.785Z,1303.61
2022-11-02T06:03:25.811Z,1303.61
2022-11-02T06:04:25.811Z,1303.61
2022-11-02T06:05:25.839Z,1303.61
2022-11-02T06:06:25.735Z,1303.61
2022-11-02T06:07:25.770Z,1303.61
2022-11-02T06:08:25.729Z,1303.61
2022-11-02T06:09:25.706Z,1303.61
2022-11-02T06:10:25.694Z,1303.61
2022-11-02T06:11:25.689Z,1303.61
2022-11-02T06:12:25.703Z,1303.61
2022-11-02T06:13:25.663Z,1303.61
2022-11-02T06:14:25.662Z,1303.61
2022-11-02T06:15:25.652Z,1303.61
2022-11-02T06:16:25.625Z,1303.61
2022-11-02T06:17:25.633Z,1303.61
2022-11-02T06:18:25.616Z,1303.61
2022-11-02T06:19:25.614Z,1303.61
2022-11-02T06:20:25.607Z,1303.61
2022-11-02T06:21:25.579Z,1303.61
2022-11-02T06:22:25.576Z,1303.61
2022-11-02T06:23:25.559Z,1303.61
2022-11-02T06:24:25.538Z,1303.61
2022-11-02T06:25:25.547Z,1303.61
2022-11-02T06:26:25.535Z,1303.61
2022-11-02T06:27:25.529Z,1303.61
2022-11-02T06:28:25.516Z,1303.61
2022-11-02T06:29:25.502Z,1303.61
2022-11-02T06:30:25.524Z,1303.61
2022-11-02T06:31:25.482Z,1303.61
2022-11-02T06:32:25.464Z,1303.61
2022-11-02T06:33:25.456Z,1303.61
2022-11-02T06:34:25.432Z,1303.61
2022-11-02T06:35:25.427Z,1303.61
2022-11-02T06:36:25.424Z,1303.61
2022-11-02T06:37:25.416Z,1303.61
2022-11-02T06:38:25.383Z,1303.61
2022-11-02T06:39:25.428Z,1303.61
2022-11-02T06:40:26.621Z,1303.61
2022-11-02T06:41:25.377Z,1303.61
2022-11-02T06:42:25.377Z,1303.61
2022-11-02T06:43:25.654Z,1303.61
2022-11-02T06:44:25.351Z,1303.61
2022-11-02T06:45:25.309Z,1303.61
2022-11-02T06:46:25.336Z,1303.61
2022-11-02T06:47:25.303Z,1303.61
2022-11-02T06:48:27.636Z,1303.61
2022-11-02T06:49:26.282Z,1303.61
2022-11-02T06:50:25.270Z,1303.61
2022-11-02T06:51:25.272Z,1303.61
2022-11-02T06:52:25.230Z,1303.61
2022-11-02T06:53:25.236Z,1303.61
2022-11-02T06:54:25.230Z,1303.61
2022-11-02T06:55:25.203Z,1303.61
2022-11-02T06:56:25.191Z,1303.61
2022-11-02T06:57:25.185Z,1303.61
2022-11-02T06:58:25.185Z,1303.61
2022-11-02T06:59:25.186Z,1303.61
2022-11-02T07:00:25.176Z,1303.61
2022-11-02T07:01:25.285Z,1303.61
2022-11-02T07:02:25.206Z,1303.61
2022-11-02T07:03:25.151Z,1303.61
2022-11-02T07:04:25.112Z,1303.61
2022-11-02T07:05:25.102Z,1303.61
2022-11-02T07:06:25.075Z,1303.61
2022-11-02T07:07:25.075Z,1303.61
2022-11-02T07:08:25.134Z,1303.61
2022-11-02T07:09:25.064Z,1303.61
2022-11-02T07:10:25.040Z,1303.61
2022-11-02T07:11:25.130Z,1303.61
2022-11-02T07:12:25.035Z,1303.61
2022-11-02T07:13:25.036Z,1303.61
2022-11-02T07:14:24.999Z,1303.61
2022-11-02T07:15:24.994Z,1303.61
2022-11-02T07:16:24.982Z,1303.61
2022-11-02T07:17:29.563Z,1303.61
2022-11-02T07:18:25.944Z,1303.61
2022-11-02T07:19:24.949Z,1303.61
2022-11-02T07:20:24.926Z,1303.61
2022-11-02T07:21:24.916Z,1303.61
2022-11-02T07:22:24.913Z,1303.61
2022-11-02T07:23:24.916Z,1303.61
2022-11-02T07:24:24.877Z,1303.61
2022-11-02T07:25:24.876Z,1303.61
2022-11-02T07:26:24.877Z,1303.61
2022-11-02T07:27:24.883Z,1303.61
2022-11-02T07:28:24.846Z,1303.61
2022-11-02T07:29:24.910Z,1303.61
2022-11-02T07:30:24.812Z,1303.61
2022-11-02T07:31:24.807Z,1303.61
2022-11-02T07:32:24.832Z,1303.61
2022-11-02T07:33:24.803Z,1303.61
2022-11-02T07:34:24.765Z,1303.61
2022-11-02T07:35:24.759Z,1303.61
2022-11-02T07:36:24.758Z,1303.61
2022-11-02T07:37:24.762Z,1303.61
2022-11-02T07:38:24.749Z,1303.61
2022-11-02T07:39:24.721Z,1303.61
2022-11-02T07:40:24.718Z,1303.61
2022-11-02T07:41:24.716Z,1303.61
2022-11-02T07:42:24.683Z,1303.61
2022-11-02T07:43:24.687Z,1303.61
2022-11-02T07:44:24.654Z,1303.61
2022-11-02T07:45:24.648Z,1303.61
2022-11-02T07:46:24.648Z,1303.61
2022-11-02T07:47:24.644Z,1303.61
2022-11-02T07:48:24.628Z,1303.61
2022-11-02T07:49:24.607Z,1303.61
2022-11-02T07:50:24.607Z,1303.61
2022-11-02T07:51:24.601Z,1303.61
2022-11-02T07:52:24.568Z,1303.61
2022-11-02T07:53:24.567Z,1303.61
2022-11-02T07:54:24.566Z,1303.61
2022-11-02T07:55:24.537Z,1303.61
2022-11-02T07:56:24.536Z,1303.61
2022-11-02T07:57:24.554Z,1303.61
2022-11-02T07:58:24.499Z,1303.61
2022-11-02T07:59:24.499Z,1303.61
2022-11-02T08:00:24.494Z,1303.61
2022-11-02T08:01:24.584Z,1303.61
2022-11-02T08:02:33.761Z,1303.61
2022-11-02T08:03:24.495Z,1303.61
2022-11-02T08:04:24.462Z,1303.61
2022-11-02T08:05:24.451Z,1303.61
2022-11-02T08:06:24.431Z,1303.61
2022-11-02T08:07:25.324Z,1303.61
2022-11-02T08:08:24.403Z,1303.61
2022-11-02T08:09:25.372Z,1303.61
2022-11-02T08:10:25.324Z,1303.61
2022-11-02T08:11:25.812Z,1303.61
2022-11-02T08:12:24.383Z,1303.61
2022-11-02T08:13:24.576Z,1303.61
2022-11-02T08:15:40.277Z,589.91
2022-11-02T08:16:40.275Z,586.25
2022-11-02T08:17:40.261Z,586.01
2022-11-02T08:18:40.229Z,585.96
2022-11-02T08:19:40.221Z,585.35
2022-11-02T08:20:40.191Z,585.12
2022-11-02T08:21:40.188Z,584.67
2022-11-02T08:22:40.198Z,584.53
2022-11-02T08:23:40.156Z,584.51
2022-11-02T08:24:40.147Z,584.40
2022-11-02T08:25:40.147Z,583.92
2022-11-02T08:28:18.527Z,587.71
2022-11-02T08:33:41.320Z,587.92
2022-11-02T08:34:41.316Z,584.57
2022-11-02T08:35:48.808Z,583.84
2022-11-02T08:36:42.355Z,583.79
2022-11-02T08:37:42.517Z,583.51
2022-11-02T08:38:41.276Z,583.16
2022-11-02T08:39:42.592Z,583.08
2022-11-02T08:40:41.231Z,583.10
2022-11-02T08:41:41.256Z,582.91
2022-11-02T08:42:47.270Z,583.14
2022-11-02T08:43:41.210Z,583.06
2022-11-02T08:44:42.637Z,583.19
2022-11-02T08:46:42.209Z,582.47
2022-11-02T08:47:43.708Z,582.05
2022-11-02T08:48:43.811Z,581.95
2022-11-02T08:49:45.389Z,582.19
2022-11-02T08:50:41.120Z,582.23
2022-11-02T08:51:41.149Z,582.26
2022-11-02T08:53:53.391Z,585.48
2022-11-02T08:54:53.356Z,581.91
2022-11-02T08:56:00.352Z,580.73
2022-11-02T08:57:02.186Z,580.00
2022-11-02T09:00:40.743Z,584.74
2022-11-02T09:01:47.847Z,580.77
2022-11-02T09:02:40.735Z,579.67
2022-11-02T09:03:40.862Z,579.00
2022-11-02T09:04:40.631Z,578.62
2022-11-02T09:05:40.696Z,578.67
2022-11-02T09:06:40.635Z,578.78
2022-11-02T09:07:40.621Z,578.49
2022-11-02T09:08:40.591Z,577.34
2022-11-02T09:09:40.586Z,577.51
2022-11-02T09:10:40.567Z,577.26
2022-11-02T09:11:40.560Z,577.05
2022-11-02T09:12:40.582Z,577.05
2022-11-02T09:13:40.604Z,576.61
2022-11-02T09:14:40.609Z,576.27
2022-11-02T09:15:40.651Z,575.92
2022-11-02T09:16:41.805Z,576.17
2022-11-02T09:17:40.485Z,575.96
2022-11-02T09:18:40.608Z,576.10
2022-11-02T09:19:40.472Z,576.59
2022-11-02T09:20:40.482Z,576.29
2022-11-02T09:21:40.480Z,575.64
2022-11-02T09:35:21.480Z,580.58
2022-11-02T09:44:47.993Z,576.09
2022-11-02T09:45:46.531Z,573.28
2022-11-02T09:46:46.541Z,572.34
2022-11-02T09:48:47.481Z,570.63
2022-11-02T09:49:46.468Z,569.85
2022-11-02T09:50:46.486Z,567.91
2022-11-02T09:51:47.447Z,566.38
2022-11-02T09:52:47.872Z,565.92
2022-11-02T09:54:03.457Z,566.02
2022-11-02T09:55:56.778Z,569.38
2022-11-02T09:56:56.870Z,566.17
2022-11-02T09:57:56.769Z,565.13
2022-11-02T09:58:56.754Z,564.80
2022-11-02T09:59:56.746Z,564.48
2022-11-02T10:01:01.507Z,564.47
2022-11-02T10:01:57.731Z,563.63
2022-11-02T10:02:56.768Z,563.33
2022-11-02T10:03:56.697Z,563.74
2022-11-02T10:04:56.705Z,564.06
2022-11-02T10:05:56.698Z,564.50
2022-11-02T10:06:56.672Z,565.19
2022-11-02T10:07:57.416Z,565.62
2022-11-02T10:08:56.636Z,565.61
2022-11-02T10:09:57.322Z,566.26
2022-11-02T10:11:01.917Z,565.77
2022-11-02T10:11:57.606Z,564.57
2022-11-02T10:12:56.592Z,564.51
2022-11-02T10:13:57.057Z,563.51
2022-11-02T10:14:56.616Z,562.19
2022-11-02T10:15:56.588Z,561.34
2022-11-02T10:16:56.546Z,560.70
2022-11-02T10:17:56.549Z,560.15
2022-11-02T10:18:56.523Z,559.44
2022-11-02T10:19:56.543Z,559.62
2022-11-02T10:20:56.512Z,559.92
2022-11-02T10:21:56.607Z,560.31
2022-11-02T10:22:56.897Z,560.43
2022-11-02T10:23:56.476Z,560.44
2022-11-02T10:24:56.471Z,560.03
2022-11-02T10:25:56.443Z,559.94
2022-11-02T10:26:56.434Z,559.90
2022-11-02T10:27:56.486Z,559.39
2022-11-02T10:28:56.465Z,559.35
2022-11-02T10:29:56.408Z,559.36
2022-11-02T10:30:56.421Z,558.70
2022-11-02T10:31:56.394Z,559.16
2022-11-02T10:32:56.395Z,558.77
2022-11-02T10:33:58.166Z,558.74
2022-11-02T10:34:59.053Z,558.84
2022-11-02T10:36:16.846Z,559.63
2022-11-02T10:36:57.328Z,559.47
2022-11-02T10:37:56.345Z,559.11
2022-11-02T10:38:56.542Z,559.07
2022-11-02T10:39:56.305Z,558.10
2022-11-02T10:40:56.377Z,557.33
2022-11-02T10:41:56.292Z,557.00
2022-11-02T10:42:56.327Z,556.62
2022-11-02T10:43:56.313Z,556.49
2022-11-02T10:44:56.308Z,556.07
2022-11-02T10:45:56.337Z,556.45
2022-11-02T10:46:56.208Z,556.92
2022-11-02T10:47:56.240Z,557.33
2022-11-02T10:48:56.262Z,557.82
2022-11-02T10:49:56.320Z,558.09
2022-11-02T10:55:34.623Z,563.29
2022-11-02T10:56:34.432Z,559.99
2022-11-02T10:57:35.153Z,558.79
2022-11-02T10:58:34.435Z,557.21
2022-11-02T10:59:34.440Z,556.46
2022-11-02T11:00:34.530Z,555.99
2022-11-02T11:01:34.414Z,554.97
2022-11-02T11:02:34.525Z,554.38
2022-11-02T11:03:34.526Z,553.36
2022-11-02T11:04:34.388Z,552.56
2022-11-02T11:05:34.373Z,552.75
2022-11-02T11:16:31.064Z,557.72
2022-11-02T11:19:39.160Z,553.75
2022-11-02T11:20:31.008Z,551.21
2022-11-02T11:21:30.185Z,550.60
2022-11-02T11:22:30.000Z,550.04
2022-11-02T11:23:30.039Z,550.31
2022-11-02T11:24:30.031Z,548.60
2022-11-02T11:25:30.009Z,548.38
2022-11-02T11:26:30.032Z,548.30
2022-11-02T11:27:29.976Z,547.72
2022-11-02T11:28:29.943Z,547.21
2022-11-02T11:29:29.951Z,546.34
2022-11-02T11:30:59.096Z,545.82
2022-11-02T11:31:35.966Z,545.09
2022-11-02T11:32:30.992Z,545.71
2022-11-02T11:33:55.165Z,546.42
2022-11-02T11:35:14.273Z,547.05
2022-11-02T11:35:33.769Z,547.10
2022-11-02T11:36:32.660Z,546.34
2022-11-02T11:37:48.149Z,546.49
2022-11-02T11:39:39.797Z,548.28
2022-11-02T11:40:39.802Z,546.53
2022-11-02T11:41:39.797Z,546.17
2022-11-02T11:42:39.770Z,545.82
2022-11-02T11:43:39.751Z,544.70
2022-11-02T11:44:39.749Z,544.74
2022-11-02T11:45:39.743Z,544.00
2022-11-02T11:46:39.756Z,543.47
2022-11-02T11:47:39.720Z,543.77
2022-11-02T11:48:39.701Z,543.47
2022-11-02T11:50:07.686Z,543.57
2022-11-02T11:50:40.688Z,543.72
2022-11-02T11:51:39.678Z,544.07
2022-11-02T11:52:39.673Z,543.81
2022-11-02T11:53:39.639Z,543.20
2022-11-02T11:54:39.638Z,1303.61
2022-11-02T11:55:39.648Z,1303.61
2022-11-02T11:56:39.664Z,1303.61
2022-11-02T11:57:39.630Z,1303.61
2022-11-02T11:58:39.599Z,1303.61
2022-11-02T11:59:39.592Z,1303.61
2022-11-02T12:00:39.594Z,1303.61
2022-11-02T12:01:39.714Z,1303.61
2022-11-02T12:02:44.542Z,1303.61
2022-11-02T12:03:40.542Z,1303.61
2022-11-02T12:04:39.522Z,1303.61
2022-11-02T12:05:39.518Z,1303.61
2022-11-02T12:06:39.514Z,1303.61
2022-11-02T12:07:39.521Z,1303.61
2022-11-02T12:08:39.481Z,1303.61
2022-11-02T12:09:39.518Z,1303.61
2022-11-02T12:10:39.456Z,1303.61
2022-11-02T12:11:39.442Z,1303.61
2022-11-02T12:12:39.449Z,1303.61
2022-11-02T12:13:39.418Z,1303.61
2022-11-02T12:14:39.412Z,1303.61
2022-11-02T12:15:39.407Z,1303.61
2022-11-02T12:16:39.401Z,1303.61
2022-11-02T12:17:39.404Z,1303.61
2022-11-02T12:18:39.391Z,1303.61
2022-11-02T12:19:39.364Z,1303.61
2022-11-02T22:45:10.299Z,912.65
2022-11-02T22:46:10.263Z,813.04
2022-11-02T22:47:10.262Z,801.79
2022-11-02T22:48:10.274Z,764.32
2022-11-02T22:49:10.221Z,709.25
2022-11-02T22:50:10.212Z,672.41
2022-11-02T22:51:10.196Z,650.11
2022-11-02T22:52:10.207Z,634.67
2022-11-02T22:53:10.174Z,624.80
2022-11-02T22:54:10.170Z,617.72
2022-11-02T22:55:10.172Z,612.38
2022-11-02T22:56:10.146Z,609.97
2022-11-02T22:57:10.176Z,609.10
2022-11-02T22:58:10.142Z,608.59
2022-11-02T22:59:10.135Z,608.21
2022-11-02T23:00:10.133Z,1303.61
2022-11-02T23:01:10.324Z,1303.61
2022-11-02T23:02:10.150Z,1303.61
2022-11-02T23:03:10.063Z,1303.61
2022-11-02T23:04:10.061Z,1303.61
2022-11-02T23:05:10.038Z,1303.61
2022-11-02T23:06:10.054Z,1303.61
2022-11-02T23:07:10.025Z,1303.61
2022-11-02T23:08:10.026Z,1303.61
2022-11-02T23:09:10.032Z,1303.61
2022-11-02T23:10:09.993Z,1303.61
2022-11-02T23:11:09.974Z,1303.61
2022-11-02T23:12:09.974Z,1303.61
2022-11-02T23:13:09.954Z,1303.61
2022-11-02T23:14:09.971Z,1303.61
2022-11-02T23:15:09.938Z,1303.61
2022-11-02T23:16:09.923Z,1303.61
2022-11-02T23:17:09.934Z,1303.61
2022-11-02T23:18:09.924Z,1303.61
2022-11-02T23:19:09.885Z,1303.61
2022-11-02T23:20:09.893Z,1303.61
2022-11-02T23:21:09.864Z,1303.61
2022-11-02T23:22:09.857Z,1303.61
2022-11-02T23:23:09.845Z,1303.61
2022-11-02T23:24:09.833Z,1303.61
2022-11-02T23:25:09.836Z,1303.61
2022-11-02T23:26:09.829Z,1303.61
2022-11-02T23:27:09.817Z,1303.61
2022-11-02T23:28:09.879Z,1303.61
2022-11-02T23:29:09.780Z,1303.61
2022-11-02T23:30:09.812Z,1303.61
2022-11-02T23:31:09.751Z,1303.61
2022-11-02T23:32:09.746Z,1303.61